createdAt,value
2018-06-12T00:05:04.817Z,3.95
2018-06-12T00:10:59.245Z,3.82
2018-06-12T00:16:54.269Z,3.9
2018-06-12T00:22:49.292Z,3.62
2018-06-12T00:28:44.333Z,3.75
2018-06-12T00:34:39.254Z,3.73
2018-06-12T00:40:34.262Z,4.01
2018-06-12T00:46:29.302Z,3.62
2018-06-12T00:52:24.289Z,3.7
2018-06-12T00:58:19.287Z,3.57
2018-06-12T01:04:14.385Z,3.38
2018-06-12T01:10:09.695Z,3.24
2018-06-12T01:16:04.315Z,3.54
2018-06-12T01:21:59.348Z,2.9
2018-06-12T01:27:54.327Z,2.9
2018-06-12T01:33:49.310Z,3.31
2018-06-12T01:39:44.322Z,2.59
2018-06-12T01:45:39.399Z,2.82
2018-06-12T01:51:34.319Z,2.85
2018-06-12T01:57:29.342Z,2.51
2018-06-12T02:03:24.352Z,2.67
2018-06-12T02:09:19.353Z,2.7
2018-06-12T02:15:14.345Z,2.54
2018-06-12T02:21:09.323Z,2.48
2018-06-12T02:27:04.450Z,2.37
2018-06-12T02:32:59.328Z,2.5
2018-06-12T02:38:54.318Z,3.04
2018-06-12T02:44:49.362Z,2.71
2018-06-12T02:50:44.390Z,2.66
2018-06-12T02:56:39.348Z,3.71
2018-06-12T03:02:34.423Z,4.26
2018-06-12T03:08:29.393Z,4.43
2018-06-12T03:14:24.428Z,4.8
2018-06-12T03:20:19.423Z,4.45
2018-06-12T03:26:14.400Z,4.27
2018-06-12T03:32:09.417Z,4.14
2018-06-12T03:38:04.671Z,3.88
2018-06-12T03:43:59.462Z,3.45
2018-06-12T03:49:54.395Z,3.89
2018-06-12T03:55:49.524Z,3.92
2018-06-12T04:01:44.406Z,4.62
2018-06-12T04:07:39.524Z,3.91
2018-06-12T04:13:34.432Z,4.79
2018-06-12T04:19:29.463Z,4.27
2018-06-12T04:25:24.450Z,4.24
2018-06-12T04:31:19.415Z,4.84
2018-06-12T04:37:14.436Z,5.3
2018-06-12T04:43:09.401Z,9.1
2018-06-12T04:49:04.466Z,9.4
2018-06-12T04:54:59.451Z,9.62
2018-06-12T05:00:54.415Z,10.44
2018-06-12T05:06:49.452Z,8.18
2018-06-12T05:12:44.447Z,6.65
2018-06-12T05:18:39.468Z,6.1
2018-06-12T05:24:34.470Z,5.6
2018-06-12T05:30:29.466Z,4.89
2018-06-12T05:36:24.437Z,5.1
2018-06-12T05:42:19.437Z,4.85
2018-06-12T05:48:14.488Z,4.8
2018-06-12T05:54:09.473Z,4.67
2018-06-12T06:00:04.518Z,4.87
2018-06-12T06:05:59.584Z,5.6
2018-06-12T06:11:54.481Z,5.06
2018-06-12T06:17:49.449Z,4.62
2018-06-12T06:23:44.466Z,4.76
2018-06-12T06:29:39.566Z,3.67
2018-06-12T06:35:34.557Z,3.84
2018-06-12T06:41:29.495Z,3.74
2018-06-12T06:47:24.516Z,3.79
2018-06-12T06:53:19.503Z,3.76
2018-06-12T06:59:14.474Z,4.01
2018-06-12T07:05:09.573Z,4.74
2018-06-12T07:11:04.546Z,5.23
2018-06-12T07:16:59.482Z,5.06
2018-06-12T07:22:54.495Z,4.26
2018-06-12T07:28:49.549Z,4.51
2018-06-12T07:34:44.519Z,5.59
2018-06-12T07:40:39.626Z,3.24
2018-06-12T07:46:34.504Z,2.82
2018-06-12T07:52:29.509Z,2.46
2018-06-12T07:58:24.551Z,2.49
2018-06-12T08:04:19.516Z,2.67
2018-06-12T08:10:14.527Z,1.93
2018-06-12T08:16:09.528Z,1.88
2018-06-12T08:22:04.610Z,2.2
2018-06-12T08:27:59.540Z,1.59
2018-06-12T08:33:54.549Z,2.43
2018-06-12T08:39:49.644Z,2.46
2018-06-12T08:45:44.572Z,2.2
2018-06-12T08:51:39.599Z,2.45
2018-06-12T08:57:34.576Z,2.18
2018-06-12T09:09:24.602Z,2.41
2018-06-12T09:15:19.595Z,2.19
2018-06-12T09:21:14.585Z,2.31
2018-06-12T09:27:09.621Z,1.79
2018-06-12T09:33:04.615Z,2.34
2018-06-12T09:38:59.576Z,2.87
2018-06-12T09:44:54.572Z,2.23
2018-06-12T09:50:49.617Z,2.13
2018-06-12T09:56:44.612Z,2.06
2018-06-12T10:02:39.630Z,2.8
2018-06-12T10:08:34.609Z,2.52
2018-06-12T10:14:29.644Z,2.82
2018-06-12T10:20:24.600Z,2.77
2018-06-12T10:26:19.606Z,3.38
2018-06-12T10:32:14.620Z,2.89
2018-06-12T10:38:09.683Z,2.7
2018-06-12T10:44:04.643Z,2.8
2018-06-12T10:49:59.674Z,3.36
2018-06-12T10:55:54.640Z,3.45
2018-06-12T11:01:49.714Z,3.75
2018-06-12T11:07:44.630Z,3.48
2018-06-12T11:13:39.672Z,3.85
2018-06-12T11:19:34.689Z,3.48
2018-06-12T11:25:29.687Z,3.51
2018-06-12T11:31:24.641Z,3.54
2018-06-12T11:37:19.638Z,3
2018-06-12T11:43:14.687Z,2.9
2018-06-12T11:49:09.698Z,2.68
2018-06-12T11:55:04.758Z,3.65
2018-06-12T12:00:59.661Z,2.8
2018-06-12T12:06:54.692Z,2.52
2018-06-12T12:12:49.681Z,3.7
2018-06-12T12:18:45.682Z,2.98
2018-06-12T12:24:39.673Z,2.36
2018-06-12T12:30:38.790Z,2.61
2018-06-12T12:36:29.709Z,2.77
2018-06-12T12:42:24.703Z,2.49
2018-06-12T12:48:19.731Z,2.57
2018-06-12T12:54:14.722Z,2.64
2018-06-12T13:00:10.197Z,2.57
2018-06-12T13:06:04.716Z,2.13
2018-06-12T13:11:59.751Z,3.08
2018-06-12T13:17:54.774Z,3.14
2018-06-12T13:23:49.698Z,2.52
2018-06-12T13:29:44.721Z,2.66
2018-06-12T13:35:39.739Z,2.4
2018-06-12T13:41:34.764Z,2.8
2018-06-12T13:47:29.746Z,2.18
2018-06-12T13:53:24.744Z,2.1
2018-06-12T14:00:40.937Z,1.93
2018-06-12T14:05:14.764Z,2.03
2018-06-12T14:11:13.836Z,2.33
2018-06-12T14:17:04.867Z,2.09
2018-06-12T14:22:59.749Z,1.95
2018-06-12T14:29:06.837Z,2.2
2018-06-12T14:34:52.809Z,2.7
2018-06-12T14:40:50.779Z,2.12
2018-06-12T14:46:43.820Z,2.71
2018-06-12T14:52:41.822Z,2.76
2018-06-12T14:58:36.831Z,2.54
2018-06-12T15:04:59.927Z,2.6
2018-06-12T15:10:23.862Z,2.35
2018-06-12T15:16:18.804Z,2.85
2018-06-12T15:22:28.864Z,2.66
2018-06-12T15:28:05.798Z,2.75
2018-06-12T15:34:00.792Z,3.89
2018-06-12T15:39:57.830Z,2.93
2018-06-12T15:46:03.857Z,2.97
2018-06-12T15:51:59.852Z,3.05
2018-06-12T15:57:49.875Z,3.28
2018-06-12T16:03:34.881Z,3.06
2018-06-12T16:09:30.817Z,5.47
2018-06-12T16:15:24.821Z,4.17
2018-06-12T16:21:26.866Z,3.3
2018-06-12T16:27:45.889Z,3.2
2018-06-12T16:33:13.922Z,3.66
2018-06-12T16:39:08.935Z,3.39
2018-06-12T16:45:00.839Z,3.43
2018-06-12T16:51:06.857Z,3.19
2018-06-12T16:56:55.106Z,3.13
2018-06-12T17:02:50.833Z,3.66
2018-06-12T17:08:47.921Z,3.86
2018-06-12T17:14:34.894Z,3.99
2018-06-12T17:20:29.867Z,3.25
2018-06-12T17:26:24.893Z,3.79
2018-06-12T17:32:19.888Z,3.93
2018-06-12T17:38:14.934Z,4.14
2018-06-12T17:44:09.868Z,4.24
2018-06-12T17:50:05.276Z,4.42
2018-06-12T17:55:59.970Z,4.46
2018-06-12T18:01:54.896Z,4.53
2018-06-12T18:07:49.970Z,4.82
2018-06-12T18:13:44.906Z,5.18
2018-06-12T18:19:39.943Z,4.4
2018-06-12T18:25:34.906Z,3.95
2018-06-12T18:31:29.877Z,3.08
2018-06-12T18:37:24.963Z,2.79
2018-06-12T18:43:19.934Z,2.11
2018-06-12T18:49:14.916Z,2.61
2018-06-12T18:55:09.915Z,1.56
2018-06-12T19:01:04.997Z,1.97
2018-06-12T19:06:59.918Z,1.33
2018-06-12T19:12:54.942Z,2.01
2018-06-12T19:18:49.926Z,1.57
2018-06-12T19:24:44.942Z,1.77
2018-06-12T19:30:39.940Z,1.93
2018-06-12T19:36:34.950Z,1.88
2018-06-12T19:42:29.969Z,1.83
2018-06-12T19:48:37.275Z,2.73
2018-06-12T19:54:19.964Z,1.94
2018-06-12T20:00:14.994Z,1.84
2018-06-12T20:06:10.008Z,2
2018-06-12T20:12:04.977Z,1.99
2018-06-12T20:17:59.980Z,1.93
2018-06-12T20:23:54.980Z,1.57
2018-06-12T20:29:49.964Z,1.99
2018-06-12T20:35:44.999Z,1.67
2018-06-12T20:41:39.967Z,7.3
2018-06-12T20:47:34.981Z,5.09
2018-06-12T20:53:30.031Z,2.56
2018-06-12T20:59:25.057Z,2.94
2018-06-12T21:05:20.017Z,3.62
2018-06-12T21:11:14.999Z,2.57
2018-06-12T21:17:10.015Z,3.18
2018-06-12T21:23:05.017Z,3.36
2018-06-12T21:29:00.031Z,2.46
2018-06-12T21:34:55.017Z,2.51
2018-06-12T21:40:50.006Z,2.6
2018-06-12T21:46:45.056Z,2.76
2018-06-12T21:52:40.017Z,2.53
2018-06-12T21:58:35.002Z,2.75
2018-06-12T22:04:30.104Z,3.04
2018-06-12T22:10:25.036Z,2.52
2018-06-12T22:16:20.020Z,2.77
2018-06-12T22:22:16.040Z,2.73
2018-06-12T22:28:10.039Z,3.06
2018-06-12T22:34:05.051Z,3.1
2018-06-12T22:40:33.017Z,3.11
2018-06-12T22:45:55.078Z,3.13
2018-06-12T22:51:50.079Z,3.14
2018-06-12T22:57:45.067Z,3
2018-06-12T23:03:40.084Z,2.42
2018-06-12T23:09:35.135Z,2.73
2018-06-12T23:15:30.074Z,2.5
2018-06-12T23:21:25.091Z,2.4
2018-06-12T23:27:20.090Z,2.96
2018-06-12T23:33:15.070Z,2.62
2018-06-12T23:39:10.112Z,2.63
2018-06-12T23:45:05.137Z,3.58
2018-06-12T23:51:00.148Z,2.82
2018-06-12T23:56:55.077Z,2.43
